Terminal Aerodrome Forecast
Issued by NWS

Home | Current Version | Previous Version | Graphics & Text | Print | Product List | Glossary On
Versions: 1 2 3 4 5 6 7 8 9 10 11 12 13 14 15 16 17 18
000
FTUS42 KMHX 270537
TAFPGV
TAF
KPGV 270537Z 2706/2806 VRB04KT P6SM VCSH SCT030 BKN100
      TEMPO 2707/2711 4SM BR BKN020
     FM271400 19012KT P6SM VCTS SCT030 BKN050CB
     FM271800 20011G19KT P6SM VCTS BKN035CB
     FM280000 21009KT P6SM VCTS BKN030CB
      AMD LTD TO CLD VIS AND WIND=

USA.gov is the U.S. government's official web portal to all federal, state and local government web resources and services.